Time;durP1;ratioP1;P1;durP2;ratioP2;P2;SDS_P1;SDS_P2;PMS_P1;PMS_P2;Temp;Humidity;BMP_temperature;BMP_pressure;BME280_temperature;BME280_humidity;BME280_pressure;Samples;Min_cycle;Max_cycle;Signal;HPM_P1;HPM_P2
2023/07/23 00:01:18;;;;;;;0.00;0.00;;;;;;;14.72;100.00;100828.72;5054105;28;20120;-45
2023/07/23 00:03:43;;;;;;;0.00;0.00;;;;;;;14.73;100.00;100832.28;5053683;28;20075;-47
2023/07/23 00:06:09;;;;;;;0.00;0.00;;;;;;;14.71;100.00;100836.00;5053529;28;20029;-47
2023/07/23 00:08:34;;;;;;;0.00;0.00;;;;;;;14.73;100.00;100833.09;5053527;28;20029;-47
2023/07/23 00:11:00;;;;;;;0.00;0.00;;;;;;;14.76;100.00;100834.56;5053418;28;20366;-47
2023/07/23 00:13:25;;;;;;;0.00;0.00;;;;;;;14.78;100.00;100819.75;5053196;28;20098;-50
2023/07/23 00:15:51;;;;;;;0.00;0.00;;;;;;;14.81;100.00;100824.75;5053136;28;20044;-47
2023/07/23 00:18:16;;;;;;;0.00;0.00;;;;;;;14.81;100.00;100818.50;5052887;28;20021;-49
2023/07/23 00:20:42;;;;;;;0.00;0.00;;;;;;;14.86;100.00;100805.16;5052755;28;20059;-48
2023/07/23 00:23:07;;;;;;;0.00;0.00;;;;;;;14.84;100.00;100805.34;5052221;28;20025;-48
2023/07/23 00:25:32;;;;;;;0.00;0.00;;;;;;;14.82;100.00;100803.91;5052078;28;20051;-47
2023/07/23 00:27:58;;;;;;;0.00;0.00;;;;;;;14.84;100.00;100801.81;5053047;28;20554;-48
2023/07/23 00:30:23;;;;;;;0.00;0.00;;;;;;;14.88;100.00;100797.66;5052737;28;20423;-46
2023/07/23 00:32:49;;;;;;;0.00;0.00;;;;;;;14.91;100.00;100794.53;5053246;28;20021;-46
2023/07/23 00:35:14;;;;;;;0.00;0.00;;;;;;;14.93;100.00;100789.72;5052768;28;20676;-50
2023/07/23 00:37:39;;;;;;;0.00;0.00;;;;;;;14.94;100.00;100785.97;5053223;28;20029;-48
2023/07/23 00:40:05;;;;;;;0.00;0.00;;;;;;;14.93;100.00;100779.72;5052604;28;20469;-50
2023/07/23 00:42:31;;;;;;;0.00;0.00;;;;;;;14.93;100.00;100781.59;5052952;28;20029;-45
2023/07/23 00:44:56;;;;;;;0.00;0.00;;;;;;;14.90;100.00;100780.16;5052871;28;20021;-48
2023/07/23 00:47:22;;;;;;;0.00;0.00;;;;;;;14.90;100.00;100782.00;5053825;28;20463;-51
2023/07/23 00:49:47;;;;;;;0.00;0.00;;;;;;;14.92;100.00;100774.50;5051101;28;20087;-51
2023/07/23 00:52:13;;;;;;;0.00;0.00;;;;;;;14.93;100.00;100765.34;5051342;28;20037;-48
2023/07/23 00:54:39;;;;;;;0.00;0.00;;;;;;;14.89;100.00;100775.75;5052429;28;20036;-48
2023/07/23 00:57:05;;;;;;;0.00;0.00;;;;;;;14.82;100.00;100766.78;5052260;28;20395;-50
2023/07/23 00:59:32;;;;;;;0.00;0.00;;;;;;;14.81;100.00;100767.84;5053000;28;20044;-47
2023/07/23 01:01:58;;;;;;;0.00;0.00;;;;;;;14.82;100.00;100764.09;5052840;28;20031;-48
2023/07/23 01:04:23;;;;;;;0.00;0.00;;;;;;;14.83;100.00;100764.94;5052518;28;20287;-48
2023/07/23 01:06:49;;;;;;;0.10;0.00;;;;;;;14.80;100.00;100755.34;5052205;28;20024;-49
2023/07/23 01:09:16;;;;;;;0.00;0.00;;;;;;;14.80;100.00;100754.53;5050891;28;20044;-51
2023/07/23 01:11:42;;;;;;;0.00;0.00;;;;;;;14.84;100.00;100756.59;5052546;28;20095;-48
2023/07/23 01:14:08;;;;;;;0.00;0.00;;;;;;;14.85;100.00;100760.97;5051683;28;20056;-47
2023/07/23 01:16:33;;;;;;;0.00;0.00;;;;;;;14.80;100.00;100747.22;5051859;28;20032;-45
2023/07/23 01:18:59;;;;;;;0.00;0.00;;;;;;;14.81;100.00;100753.47;5049371;28;20025;-48
2023/07/23 01:21:27;;;;;;;0.00;0.00;;;;;;;14.82;100.00;100745.13;5050395;28;20411;-46
2023/07/23 01:23:52;;;;;;;;;;;;;;;14.81;100.00;100748.06;5050874;28;20475;-49
2023/07/23 01:26:19;;;;;;;0.00;0.00;;;;;;;14.80;100.00;100744.53;5050785;28;19918;-51
2023/07/23 01:28:44;;;;;;;0.00;0.00;;;;;;;14.84;100.00;100736.78;5051780;28;20017;-51
2023/07/23 01:31:12;;;;;;;0.00;0.00;;;;;;;14.81;100.00;100735.34;5051718;28;20067;-48
2023/07/23 01:33:37;;;;;;;;;;;;;;;14.82;100.00;100731.56;5052027;28;20039;-47
2023/07/23 01:36:03;;;;;;;0.00;0.00;;;;;;;14.78;100.00;100727.63;5050097;28;19999;-49
2023/07/23 01:38:28;;;;;;;0.00;0.00;;;;;;;14.79;100.00;100725.75;5051351;28;20024;-49
2023/07/23 01:40:54;;;;;;;0.00;0.00;;;;;;;14.80;100.00;100724.72;5051814;28;20471;-48
2023/07/23 01:43:19;;;;;;;0.00;0.00;;;;;;;14.81;100.00;100729.09;5051635;28;20025;-48
2023/07/23 01:45:46;;;;;;;0.00;0.00;;;;;;;14.76;100.00;100718.06;5050155;28;20029;-50
2023/07/23 01:48:12;;;;;;;0.00;0.00;;;;;;;14.77;100.00;100715.16;5051417;28;20464;-48
2023/07/23 01:50:38;;;;;;;0.00;0.00;;;;;;;14.79;100.00;100712.22;5051386;28;20059;-47
2023/07/23 01:53:04;;;;;;;0.00;0.00;;;;;;;14.83;100.00;100708.03;5051282;28;20060;-50
2023/07/23 01:55:29;;;;;;;0.00;0.00;;;;;;;14.83;100.00;100702.63;5051378;28;20505;-51
2023/07/23 01:57:55;;;;;;;0.00;0.00;;;;;;;14.82;100.00;100703.66;5051053;28;20081;-48
2023/07/23 02:00:20;;;;;;;0.00;0.00;;;;;;;14.83;100.00;100702.63;5051369;28;20159;-51
2023/07/23 02:02:46;;;;;;;0.00;0.00;;;;;;;14.82;100.00;100700.94;5051083;28;20037;-47
2023/07/23 02:05:12;;;;;;;0.00;0.00;;;;;;;14.86;100.00;100691.34;5051413;28;20421;-50
2023/07/23 02:07:37;;;;;;;0.00;0.00;;;;;;;14.87;100.00;100687.59;5051101;28;20460;-48
2023/07/23 02:10:03;;;;;;;0.00;0.00;;;;;;;14.85;100.00;100684.25;5050991;28;20025;-45
2023/07/23 02:12:28;;;;;;;0.00;0.00;;;;;;;14.88;100.00;100678.44;5051241;28;20031;-46
2023/07/23 02:14:53;;;;;;;0.00;0.00;;;;;;;14.90;100.00;100676.31;5051031;28;20025;-50
2023/07/23 02:17:19;;;;;;;0.10;0.00;;;;;;;14.94;100.00;100666.72;5049299;28;20078;-51
2023/07/23 02:19:44;;;;;;;0.00;0.00;;;;;;;14.94;100.00;100664.00;5050797;28;20051;-47
2023/07/23 02:22:10;;;;;;;0.00;0.00;;;;;;;14.95;100.00;100657.53;5050997;28;20021;-49
2023/07/23 02:24:36;;;;;;;0.00;0.00;;;;;;;14.94;100.00;100655.88;5050956;28;20486;-47
2023/07/23 02:27:02;;;;;;;0.00;0.00;;;;;;;14.96;100.00;100652.97;5049266;28;20039;-48
2023/07/23 02:29:27;;;;;;;0.00;0.00;;;;;;;14.95;100.00;100641.28;5050726;28;20025;-50
2023/07/23 02:31:52;;;;;;;0.00;0.00;;;;;;;14.95;100.00;100641.28;5050721;28;20031;-49
2023/07/23 02:34:18;;;;;;;0.00;0.00;;;;;;;14.94;100.00;100645.03;5051087;28;20467;-47
2023/07/23 02:36:47;;;;;;;0.00;0.00;;;;;;;14.91;100.00;100640.88;5051018;28;20036;-46
2023/07/23 02:39:13;;;;;;;0.00;0.00;;;;;;;14.98;100.00;100638.16;5050750;28;20487;-48
2023/07/23 02:41:39;;;;;;;0.00;0.00;;;;;;;14.95;100.00;100635.84;5050381;28;20039;-47
2023/07/23 02:44:04;;;;;;;0.00;0.00;;;;;;;14.96;100.00;100628.59;5050855;28;20032;-47
2023/07/23 02:46:29;;;;;;;0.00;0.00;;;;;;;15.00;100.00;100622.50;5049178;28;20032;-44
2023/07/23 02:48:55;;;;;;;0.00;0.00;;;;;;;14.97;100.00;100622.94;5054745;28;20104;-47
2023/07/23 02:51:21;;;;;;;0.00;0.00;;;;;;;14.98;100.00;100621.91;5054618;28;20112;-45
2023/07/23 02:53:46;;;;;;;0.00;0.00;;;;;;;15.01;100.00;100617.91;5054743;28;20025;-47
2023/07/23 02:56:12;;;;;;;0.00;0.00;;;;;;;15.00;100.00;100617.06;5054477;28;20037;-47
2023/07/23 02:58:37;;;;;;;0.00;0.00;;;;;;;15.01;100.00;100615.19;5054279;28;20128;-47
2023/07/23 03:01:02;;;;;;;0.00;0.00;;;;;;;15.01;100.00;100605.19;5054915;28;20016;-48
2023/07/23 03:03:28;;;;;;;0.00;0.00;;;;;;;15.00;100.00;100606.22;5054528;28;20025;-46
2023/07/23 03:05:53;;;;;;;0.00;0.00;;;;;;;15.00;100.00;100611.66;5054895;28;20036;-45
2023/07/23 03:08:19;;;;;;;0.00;0.00;;;;;;;14.95;100.00;100602.50;5054325;28;20536;-46
2023/07/23 03:10:44;;;;;;;0.00;0.00;;;;;;;14.99;100.00;100599.16;5054573;28;20112;-45
2023/07/23 03:13:10;;;;;;;0.00;0.00;;;;;;;15.04;100.00;100591.22;5054506;28;20026;-44
2023/07/23 03:15:35;;;;;;;0.00;0.00;;;;;;;15.01;100.00;100590.78;5054050;28;20033;-46
2023/07/23 03:18:02;;;;;;;0.00;0.00;;;;;;;14.96;100.00;100586.06;5054520;28;20100;-47
2023/07/23 03:20:27;;;;;;;0.00;0.00;;;;;;;14.96;100.00;100582.50;5054585;28;20079;-47
2023/07/23 03:22:53;;;;;;;0.00;0.00;;;;;;;14.95;100.00;100581.66;5054597;28;20025;-47
2023/07/23 03:25:18;;;;;;;0.00;0.00;;;;;;;14.95;100.00;100587.09;5054635;28;20513;-46
2023/07/23 03:27:44;;;;;;;0.00;0.00;;;;;;;14.91;100.00;100575.03;5054518;28;20059;-50
2023/07/23 03:30:10;;;;;;;0.00;0.00;;;;;;;14.88;100.00;100570.06;5054785;28;20025;-48
2023/07/23 03:32:35;;;;;;;0.00;0.00;;;;;;;14.88;100.00;100578.19;5054627;28;20039;-47
2023/07/23 03:35:01;;;;;;;0.00;0.00;;;;;;;14.91;100.00;100575.03;5054338;28;20021;-49
2023/07/23 03:37:26;;;;;;;0.00;0.00;;;;;;;14.92;100.00;100571.25;5054715;28;20040;-47
2023/07/23 03:39:51;;;;;;;0.00;0.00;;;;;;;14.93;100.00;100572.94;5054252;28;20345;-47
2023/07/23 03:42:17;;;;;;;0.00;0.00;;;;;;;14.89;100.00;100575.22;5054529;28;20029;-47
2023/07/23 03:44:43;;;;;;;0.00;0.00;;;;;;;14.88;100.00;100568.16;5054365;28;20031;-47
2023/07/23 03:47:14;;;;;;;0.00;0.00;;;;;;;14.89;100.00;100567.09;5054034;28;20458;-47
2023/07/23 03:49:39;;;;;;;0.00;0.00;;;;;;;14.83;100.00;100562.56;5054184;28;20098;-48
2023/07/23 03:52:06;;;;;;;0.00;0.00;;;;;;;14.87;100.00;100557.53;5054204;28;20037;-46
2023/07/23 03:54:32;;;;;;;0.00;0.00;;;;;;;14.89;100.00;100558.16;5053453;28;20115;-47
2023/07/23 03:56:57;;;;;;;0.00;0.00;;;;;;;14.93;100.00;100552.09;5053582;28;20047;-45
2023/07/23 03:59:27;;;;;;;0.00;0.00;;;;;;;14.95;100.00;100549.13;5053418;28;20322;-46
2023/07/23 04:01:53;;;;;;;0.00;0.00;;;;;;;15.00;100.00;100552.03;5053928;28;20033;-48
2023/07/23 04:04:18;;;;;;;0.00;0.00;;;;;;;15.02;100.00;100544.53;5053059;28;20017;-48
2023/07/23 04:06:44;;;;;;;0.00;0.00;;;;;;;15.08;100.00;100549.06;5055114;28;20039;-47
2023/07/23 04:09:09;;;;;;;0.00;0.00;;;;;;;15.12;100.00;100527.78;5055461;28;20021;-46
2023/07/23 04:11:34;;;;;;;0.00;0.00;;;;;;;15.12;100.00;100531.31;5054818;28;20025;-47
2023/07/23 04:14:00;;;;;;;0.00;0.00;;;;;;;15.12;100.00;100534.03;5052662;28;20426;-48
2023/07/23 04:16:25;;;;;;;0.00;0.00;;;;;;;15.13;100.00;100530.25;5052935;28;20222;-48
2023/07/23 04:18:51;;;;;;;0.00;0.00;;;;;;;15.11;100.00;100520.69;5052318;28;20413;-47
2023/07/23 04:21:23;;;;;;;0.00;0.00;;;;;;;15.09;100.00;100523.63;5054068;28;20100;-49
2023/07/23 04:23:50;;;;;;;0.00;0.00;;;;;;;15.09;100.00;100526.34;5053854;28;20032;-49
2023/07/23 04:26:17;;;;;;;0.00;0.00;;;;;;;15.09;100.00;100529.06;5053997;28;20029;-49
2023/07/23 04:28:43;;;;;;;0.00;0.00;;;;;;;15.10;100.00;100524.47;5053514;28;20053;-49
2023/07/23 04:31:09;;;;;;;0.00;0.00;;;;;;;15.09;100.00;100534.47;5053370;28;20288;-48
2023/07/23 04:33:34;;;;;;;0.00;0.00;;;;;;;15.08;100.00;100531.97;5051969;28;20513;-48
2023/07/23 04:36:00;;;;;;;0.00;0.00;;;;;;;15.10;100.00;100521.75;5053627;28;20081;-49
2023/07/23 04:38:25;;;;;;;0.00;0.00;;;;;;;15.06;100.00;100524.06;5052722;28;20283;-51
2023/07/23 04:40:51;;;;;;;0.00;0.00;;;;;;;15.09;100.00;100528.22;5053072;28;20152;-51
2023/07/23 04:43:16;;;;;;;0.00;0.00;;;;;;;15.11;100.00;100529.66;5052713;28;20028;-49
2023/07/23 04:45:41;;;;;;;0.00;0.00;;;;;;;15.13;100.00;100532.97;5052433;28;20058;-51
2023/07/23 04:48:07;;;;;;;0.00;0.00;;;;;;;15.11;100.00;100532.38;5052555;28;20387;-50
2023/07/23 04:50:32;;;;;;;0.00;0.00;;;;;;;15.16;100.00;100529.00;5052525;28;20024;-49
2023/07/23 04:52:58;;;;;;;0.00;0.00;;;;;;;15.19;100.00;100528.53;5052187;28;20025;-50
2023/07/23 04:55:25;;;;;;;0.00;0.00;;;;;;;15.14;100.00;100534.66;5051852;28;20425;-47
2023/07/23 04:57:50;;;;;;;0.00;0.00;;;;;;;15.16;100.00;100526.28;5053741;28;20045;-47
2023/07/23 05:00:17;;;;;;;0.00;0.00;;;;;;;15.20;100.00;100521.25;5052274;28;20463;-47
2023/07/23 05:02:42;;;;;;;0.00;0.00;;;;;;;15.18;100.00;100526.06;5052285;28;20037;-47
2023/07/23 05:05:08;;;;;;;0.00;0.00;;;;;;;15.19;100.00;100519.59;5051921;28;20161;-51
2023/07/23 05:07:33;;;;;;;0.00;0.00;;;;;;;15.15;100.00;100519.22;5052479;28;20033;-50
2023/07/23 05:09:58;;;;;;;0.00;0.00;;;;;;;15.06;100.00;100524.06;5051563;28;20033;-50
2023/07/23 05:12:24;;;;;;;0.00;0.00;;;;;;;15.04;100.00;100536.19;5052115;28;20060;-51
2023/07/23 05:14:49;;;;;;;0.00;0.00;;;;;;;15.01;100.00;100533.88;5052055;28;20451;-50
2023/07/23 05:17:14;;;;;;;0.00;0.00;;;;;;;14.97;100.00;100527.25;5051755;28;20032;-51
2023/07/23 05:19:40;;;;;;;0.00;0.00;;;;;;;14.93;100.00;100524.16;5051665;28;20341;-50
2023/07/23 05:22:06;;;;;;;0.00;0.00;;;;;;;14.93;100.00;100519.56;5052027;28;20025;-49
2023/07/23 05:24:31;;;;;;;0.00;0.00;;;;;;;14.89;100.00;100531.06;5051704;28;20032;-47
2023/07/23 05:26:57;;;;;;;0.00;0.00;;;;;;;14.83;100.00;100529.22;5051640;28;20198;-50
2023/07/23 05:29:22;;;;;;;0.00;0.00;;;;;;;14.79;100.00;100528.81;5051646;28;20530;-49
2023/07/23 05:31:48;;;;;;;0.00;0.00;;;;;;;14.72;100.00;100525.34;5051633;28;20021;-51
2023/07/23 05:34:13;;;;;;;0.00;0.00;;;;;;;14.71;100.00;100529.06;5051608;28;20079;-50
2023/07/23 05:36:39;;;;;;;0.00;0.00;;;;;;;14.63;100.00;100529.31;5051402;28;20078;-49
2023/07/23 05:39:04;;;;;;;0.00;0.00;;;;;;;14.59;100.00;100526.22;5051542;28;20036;-50
2023/07/23 05:41:30;;;;;;;0.00;0.00;;;;;;;14.62;100.00;100525.78;5051433;28;20028;-49
2023/07/23 05:43:55;;;;;;;0.00;0.00;;;;;;;14.55;100.00;100527.69;5051368;28;20116;-50
2023/07/23 05:46:20;;;;;;;0.00;0.00;;;;;;;14.52;100.00;100525.38;5051113;28;20383;-49
2023/07/23 05:48:48;;;;;;;0.00;0.00;;;;;;;14.50;100.00;100520.19;5051299;28;20037;-52
2023/07/23 05:51:13;;;;;;;0.00;0.00;;;;;;;14.48;100.00;100516.03;5051119;28;20079;-47
2023/07/23 05:53:39;;;;;;;0.00;0.00;;;;;;;14.45;100.00;100536.25;5051231;28;20033;-49
2023/07/23 05:56:05;;;;;;;0.00;0.00;;;;;;;14.47;100.00;100522.50;5051607;28;20033;-49
2023/07/23 05:58:30;;;;;;;0.00;0.00;;;;;;;14.51;100.00;100526.44;5050839;28;20053;-47
2023/07/23 06:00:56;;;;;;;0.00;0.00;;;;;;;14.54;100.00;100526.03;5050917;28;20036;-49
2023/07/23 06:03:22;;;;;;;0.00;0.00;;;;;;;14.53;100.00;100524.38;5049782;28;20033;-48
2023/07/23 06:05:47;;;;;;;0.00;0.00;;;;;;;14.54;100.00;100528.75;5051003;28;20025;-50
2023/07/23 06:08:13;;;;;;;0.00;0.00;;;;;;;14.65;100.00;100529.94;5051044;28;20025;-50
2023/07/23 06:10:38;;;;;;;0.00;0.00;;;;;;;14.63;100.00;100524.72;5050775;28;20086;-46
2023/07/23 06:13:03;;;;;;;0.00;0.00;;;;;;;14.66;100.00;100526.19;5051048;28;20021;-46
2023/07/23 06:15:29;;;;;;;0.00;0.00;;;;;;;14.64;100.00;100518.28;5050706;28;20108;-48
2023/07/23 06:17:54;;;;;;;0.00;0.00;;;;;;;14.70;100.00;100525.53;5051183;28;20021;-46
2023/07/23 06:20:19;;;;;;;0.00;0.00;;;;;;;14.63;100.00;100522.03;5050741;28;20412;-48
2023/07/23 06:22:45;;;;;;;0.00;0.00;;;;;;;14.65;100.00;100517.22;5050716;28;20025;-50
2023/07/23 06:25:10;;;;;;;0.00;0.00;;;;;;;14.67;100.00;100514.31;5050207;28;20033;-47
2023/07/23 06:27:36;;;;;;;0.00;0.00;;;;;;;14.67;100.00;100519.72;5049462;28;20037;-49
2023/07/23 06:30:01;;;;;;;0.00;0.00;;;;;;;14.62;100.00;100514.13;5050669;28;20106;-43
2023/07/23 06:32:26;;;;;;;0.00;0.00;;;;;;;14.66;100.00;100518.88;5050981;28;20418;-47
2023/07/23 06:34:52;;;;;;;0.00;0.00;;;;;;;14.67;100.00;100514.31;5050882;28;20021;-48
2023/07/23 06:37:17;;;;;;;0.00;0.00;;;;;;;14.70;100.00;100525.53;5049525;28;20052;-49
2023/07/23 06:39:42;;;;;;;0.00;0.00;;;;;;;14.74;100.00;100525.91;5050960;28;20437;-47
2023/07/23 06:42:08;;;;;;;0.00;0.00;;;;;;;14.82;100.00;100512.13;5050544;28;20539;-48
2023/07/23 06:44:33;;;;;;;0.00;0.00;;;;;;;14.86;100.00;100517.94;5050456;28;20029;-48
2023/07/23 06:46:59;;;;;;;0.00;0.00;;;;;;;14.90;100.00;100514.59;5050287;28;20108;-46
2023/07/23 06:49:28;;;;;;;0.00;0.00;;;;;;;14.93;100.00;100513.31;5050504;28;20025;-48
2023/07/23 06:51:55;;;;;;;0.00;0.00;;;;;;;15.01;100.00;100499.50;5050551;28;20075;-47
2023/07/23 06:54:20;;;;;;;0.00;0.00;;;;;;;15.05;100.00;100495.28;5050626;28;20028;-50
2023/07/23 06:56:46;;;;;;;0.00;0.00;;;;;;;15.10;100.00;100500.88;5050102;28;20037;-46
2023/07/23 06:59:11;;;;;;;0.00;0.00;;;;;;;15.16;100.00;100491.03;5050633;28;20032;-51
2023/07/23 07:01:36;;;;;;;0.00;0.00;;;;;;;15.23;100.00;100488.28;5050392;28;20083;-46
2023/07/23 07:04:02;;;;;;;0.00;0.00;;;;;;;15.29;100.00;100490.09;5050489;28;20023;-48
2023/07/23 07:06:27;;;;;;;0.00;0.00;;;;;;;15.35;100.00;100481.09;5050095;28;20479;-46
2023/07/23 07:08:52;;;;;;;0.00;0.00;;;;;;;15.35;100.00;100483.81;5050341;28;20431;-51
2023/07/23 07:11:18;;;;;;;0.00;0.00;;;;;;;15.41;100.00;100482.09;5050205;28;20116;-49
2023/07/23 07:13:44;;;;;;;0.00;0.00;;;;;;;15.43;100.00;100479.97;5050012;28;20514;-51
2023/07/23 07:16:10;;;;;;;0.00;0.00;;;;;;;15.44;100.00;100471.63;5050043;28;20025;-48
2023/07/23 07:18:35;;;;;;;0.00;0.00;;;;;;;15.47;100.00;100454.91;5050286;28;20079;-48
2023/07/23 07:21:02;;;;;;;0.00;0.00;;;;;;;15.59;100.00;100458.53;5050202;28;20025;-51
2023/07/23 07:23:31;;;;;;;0.00;0.00;;;;;;;15.67;100.00;100453.88;5050265;28;20029;-48
2023/07/23 07:25:58;;;;;;;0.00;0.00;;;;;;;15.71;100.00;100455.09;5050101;28;20080;-49
2023/07/23 07:28:24;;;;;;;0.00;0.00;;;;;;;15.73;100.00;100442.97;5050014;28;20056;-49
2023/07/23 07:30:49;;;;;;;0.00;0.00;;;;;;;15.74;100.00;100455.47;5050200;28;20044;-47
2023/07/23 07:33:14;;;;;;;0.00;0.00;;;;;;;15.82;100.00;100446.19;5051527;28;20079;-48
2023/07/23 07:35:40;;;;;;;0.00;0.00;;;;;;;15.79;100.00;100450.19;5054074;28;20033;-51
2023/07/23 07:38:05;;;;;;;0.00;0.00;;;;;;;15.78;100.00;100440.41;5054444;28;20021;-49
2023/07/23 07:40:31;;;;;;;0.03;0.00;;;;;;;15.77;100.00;100432.47;5053882;28;20017;-51
2023/07/23 07:42:56;;;;;;;0.00;0.00;;;;;;;15.82;100.00;100448.09;5053956;28;20114;-48
2023/07/23 07:45:22;;;;;;;0.00;0.00;;;;;;;15.82;100.00;100440.78;5053942;28;20043;-48
2023/07/23 07:47:47;;;;;;;0.00;0.00;;;;;;;15.84;100.00;100438.66;5053754;28;20032;-50
2023/07/23 07:50:12;;;;;;;0.00;0.00;;;;;;;15.87;100.00;100446.34;5053745;28;20070;-51
2023/07/23 07:52:38;;;;;;;0.00;0.00;;;;;;;15.84;100.00;100446.81;5053729;28;20113;-50
2023/07/23 07:55:03;;;;;;;0.00;0.00;;;;;;;15.88;100.00;100445.31;5052938;28;20047;-50
2023/07/23 07:57:29;;;;;;;0.00;0.00;;;;;;;15.92;100.00;100445.69;5053401;28;20045;-48
2023/07/23 07:59:55;;;;;;;0.00;0.00;;;;;;;15.90;100.00;100443.19;5054091;28;20025;-46
2023/07/23 08:02:20;;;;;;;0.00;0.00;;;;;;;15.89;100.00;100446.97;5054608;28;20463;-47
2023/07/23 08:04:46;;;;;;;0.00;0.00;;;;;;;15.89;100.00;100449.69;5054874;28;20032;-47
2023/07/23 08:07:12;;;;;;;0.00;0.00;;;;;;;15.91;100.00;100446.75;5053552;28;20104;-47
2023/07/23 08:09:39;;;;;;;0.00;0.00;;;;;;;15.95;100.00;100445.22;5053543;28;20411;-49
2023/07/23 08:12:05;;;;;;;0.00;0.00;;;;;;;15.99;100.00;100468.97;5051757;28;20025;-48
2023/07/23 08:14:32;;;;;;;0.00;0.00;;;;;;;15.95;100.00;100447.94;5053581;28;20497;-47
2023/07/23 08:16:58;;;;;;;0.00;0.00;;;;;;;15.96;100.00;100447.72;5053331;28;20031;-48
2023/07/23 08:19:24;;;;;;;0.00;0.00;;;;;;;16.01;100.00;100450.59;5053274;28;20112;-45
2023/07/23 08:21:50;;;;;;;0.00;0.00;;;;;;;16.05;100.00;100461.81;5053705;28;20032;-47
2023/07/23 08:24:15;;;;;;;0.00;0.00;;;;;;;16.03;100.00;100447.63;5051953;28;20036;-46
2023/07/23 08:26:41;;;;;;;0.00;0.00;;;;;;;16.00;100.00;100465.19;5053776;28;20025;-47
2023/07/23 08:29:08;;;;;;;0.00;0.00;;;;;;;16.00;100.00;100456.22;5051994;28;20159;-45
2023/07/23 08:31:34;;;;;;;0.00;0.00;;;;;;;16.01;100.00;100466.06;5053159;28;20040;-48
2023/07/23 08:34:03;;;;;;;0.00;0.00;;;;;;;16.03;100.00;100461.19;5052892;28;20033;-47
2023/07/23 08:36:31;;;;;;;0.00;0.00;;;;;;;16.08;100.00;100460.53;5053726;28;20511;-46
2023/07/23 08:38:57;;;;;;;0.00;0.00;;;;;;;16.10;100.00;100455.72;5052901;28;20071;-45
2023/07/23 08:42:03;;;;;;;0.00;0.00;;;;;;;16.07;100.00;100459.69;5054810;28;20390;-45
2023/07/23 08:44:53;;;;;;;0.00;0.00;;;;;;;16.07;100.00;100467.03;5050916;28;20021;-46
2023/07/23 08:47:21;;;;;;;0.00;0.00;;;;;;;16.08;100.00;100458.63;5052609;28;20029;-47
2023/07/23 08:49:47;;;;;;;0.00;0.00;;;;;;;16.11;100.00;100460.88;5052519;28;20510;-45
2023/07/23 08:52:12;;;;;;;0.00;0.00;;;;;;;16.24;100.00;100457.19;5034836;28;20025;-46
2023/07/23 08:54:40;;;;;;;0.00;0.00;;;;;;;16.16;100.00;100466.47;5052352;28;20082;-45
2023/07/23 08:57:06;;;;;;;0.00;0.00;;;;;;;16.18;100.00;100450.78;5052669;28;20418;-47
2023/07/23 08:59:32;;;;;;;0.00;0.00;;;;;;;16.18;100.00;100467.06;5051019;28;20451;-50
2023/07/23 09:01:58;;;;;;;0.00;0.00;;;;;;;16.25;100.00;100453.44;5050986;28;20079;-46
2023/07/23 09:04:23;;;;;;;0.10;0.00;;;;;;;16.33;100.00;100463.16;5050815;28;20033;-50
2023/07/23 09:06:51;;;;;;;0.00;0.00;;;;;;;16.32;100.00;100456.88;5052337;28;20029;-47
2023/07/23 09:09:16;;;;;;;0.00;0.00;;;;;;;16.28;100.00;100463.00;5052097;28;20021;-46
2023/07/23 09:11:43;;;;;;;0.00;0.00;;;;;;;16.33;100.00;100463.97;5052173;28;20094;-46
2023/07/23 09:14:10;;;;;;;0.00;0.00;;;;;;;16.24;100.00;100476.19;5051847;28;20450;-50
2023/07/23 09:16:38;;;;;;;0.00;0.00;;;;;;;16.14;100.00;100478.59;5051809;28;20029;-46
2023/07/23 09:19:03;;;;;;;0.00;0.00;;;;;;;16.11;100.00;100498.06;5051702;28;20025;-47
2023/07/23 09:21:28;;;;;;;0.00;0.00;;;;;;;16.05;100.00;100504.41;5052274;28;20036;-48
2023/07/23 09:23:56;;;;;;;0.00;0.00;;;;;;;15.92;100.00;100511.66;5051582;28;20471;-47
2023/07/23 09:26:26;;;;;;;0.00;0.00;;;;;;;15.95;100.00;100511.19;5051774;28;20029;-46
2023/07/23 09:28:53;;;;;;;0.00;0.00;;;;;;;15.88;100.00;100528.63;5052109;28;20039;-48
2023/07/23 09:31:27;;;;;;;0.00;0.00;;;;;;;15.86;100.00;100526.13;5051781;28;20102;-45
2023/07/23 09:33:54;;;;;;;0.00;0.00;;;;;;;15.92;100.00;100533.34;5051870;28;20108;-48
2023/07/23 09:36:21;;;;;;;0.00;0.00;;;;;;;15.90;100.00;100535.47;5051989;28;20068;-49
2023/07/23 09:38:58;;;;;;;0.00;0.00;;;;;;;15.94;100.00;100519.56;5051569;28;20049;-48
2023/07/23 09:41:43;;;;;;;0.00;0.00;;;;;;;16.02;100.00;100530.94;5051671;28;20072;-47
2023/07/23 09:44:11;;;;;;;0.00;0.00;;;;;;;16.05;100.00;100528.84;5051732;28;20041;-50
2023/07/23 09:46:44;;;;;;;0.00;0.00;;;;;;;16.04;100.00;100524.50;5051220;28;20518;-47
2023/07/23 09:49:09;;;;;;;0.00;0.00;;;;;;;16.05;100.00;100539.72;5049986;28;20076;-47
2023/07/23 09:51:36;;;;;;;0.00;0.00;;;;;;;15.91;100.00;100533.59;5051375;28;20106;-50
2023/07/23 09:54:03;;;;;;;0.00;0.00;;;;;;;15.87;100.00;100537.81;5051178;28;20058;-50
2023/07/23 09:56:29;;;;;;;0.00;0.00;;;;;;;15.90;100.00;100546.31;5050804;28;20108;-46
2023/07/23 09:58:54;;;;;;;0.00;0.00;;;;;;;15.96;100.00;100544.63;5050901;28;20155;-44
2023/07/23 10:01:20;;;;;;;0.00;0.00;;;;;;;15.97;100.00;100551.69;5051014;28;20040;-46
2023/07/23 10:03:47;;;;;;;0.00;0.00;;;;;;;15.94;100.00;100557.56;5050816;28;20432;-48
2023/07/23 10:06:15;;;;;;;0.00;0.00;;;;;;;15.99;100.00;100550.41;5050818;28;20048;-45
2023/07/23 10:08:42;;;;;;;0.00;0.00;;;;;;;16.04;100.00;100540.78;5050592;28;20070;-48
2023/07/23 10:11:09;;;;;;;0.00;0.00;;;;;;;16.16;100.00;100547.09;5050624;28;20033;-46
2023/07/23 10:13:35;;;;;;;0.00;0.00;;;;;;;16.27;100.00;100546.34;5051099;28;20024;-46
2023/07/23 10:16:02;;;;;;;0.00;0.00;;;;;;;16.36;100.00;100542.25;5050692;28;20029;-47
2023/07/23 10:18:28;;;;;;;0.00;0.00;;;;;;;16.48;100.00;100544.22;5050786;28;20399;-47
2023/07/23 10:20:54;;;;;;;0.00;0.00;;;;;;;16.48;100.00;100550.47;5050761;28;20056;-49
2023/07/23 10:23:21;;;;;;;0.00;0.00;;;;;;;16.54;100.00;100541.44;5050698;28;20025;-47
2023/07/23 10:25:47;;;;;;;0.00;0.00;;;;;;;16.58;100.00;100525.47;5050439;28;20043;-46
2023/07/23 10:28:23;;;;;;;0.00;0.00;;;;;;;16.65;100.00;100527.06;5049459;28;20471;-44
2023/07/23 10:31:21;;;;;;;0.00;0.00;;;;;;;16.79;100.00;100530.44;5050711;28;20523;-45
2023/07/23 10:33:49;;;;;;;0.00;0.00;;;;;;;17.03;100.00;100527.81;5050472;28;20032;-47
2023/07/23 10:36:14;;;;;;;0.00;0.00;;;;;;;17.24;100.00;100521.00;5050620;28;20048;-47
2023/07/23 10:38:40;;;;;;;0.00;0.00;;;;;;;17.36;100.00;100510.16;5050701;28;20025;-50
2023/07/23 10:41:06;;;;;;;0.00;0.00;;;;;;;17.58;100.00;100502.22;5050523;28;20118;-45
2023/07/23 10:43:42;;;;;;;0.00;0.00;;;;;;;17.86;100.00;100494.19;5050550;28;20514;-49
2023/07/23 10:46:09;;;;;;;0.00;0.00;;;;;;;17.85;100.00;100483.53;5050409;28;20029;-50
2023/07/23 10:48:45;;;;;;;0.00;0.00;;;;;;;17.80;100.00;100494.31;5049171;28;20422;-47
2023/07/23 10:51:12;;;;;;;0.00;0.00;;;;;;;17.83;100.00;100480.25;5050380;28;20513;-47
2023/07/23 10:53:40;;;;;;;0.00;0.00;;;;;;;17.80;100.00;100472.53;5050591;28;20077;-47
2023/07/23 10:56:21;;;;;;;0.00;0.00;;;;;;;17.75;100.00;100471.34;5050352;28;20542;-48
2023/07/23 10:58:46;;;;;;;0.00;0.00;;;;;;;17.77;100.00;100484.69;5050603;28;20045;-48
2023/07/23 11:01:12;;;;;;;0.00;0.00;;;;;;;17.84;100.00;100495.50;5050384;28;20017;-46
2023/07/23 11:03:42;;;;;;;0.00;0.00;;;;;;;18.02;100.00;100476.28;5049229;28;20025;-46
2023/07/23 11:06:32;;;;;;;0.00;0.00;;;;;;;18.21;100.00;100469.59;5050273;28;20017;-48
2023/07/23 11:09:03;;;;;;;0.00;0.00;;;;;;;18.41;100.00;100461.03;5052801;28;20103;-46
2023/07/23 11:11:33;;;;;;;0.00;0.00;;;;;;;18.56;100.00;100460.50;5054841;28;20047;-47
2023/07/23 11:13:58;;;;;;;0.00;0.00;;;;;;;18.62;100.00;100448.59;5054509;28;20467;-46